• Join FlightAware (Why Join?)
  • Login
  • US Flag 
04:09PM EST


 

Airport Tracker/Info


-or-


 

Live Flight TrackerFlight Track Log ✈ TAM3891 ✈ 15-Nov-2013 ✈ SBEG / MAO - SBBE / BEL

Flight Track Log - Related Links

Times and Time Zones

All times are in EST time to prevent confusion due to time zone crossing. See the TAM3891 flight status page for this flight to view local times or setup timezone preferences in your user account.

Time Position Orientation Groundspeed Altitude Reporting Facility
EST Latitude Longitude Course Direction KTS MPH feet Rate Location/Type
01:43PM -2.8560 -58.7401 82° East  Level Estimated
01:44PM -2.8419 -58.6394 82° East  Level Estimated
01:45PM -2.8278 -58.5387 82° East  Level Estimated
01:46PM -2.8137 -58.4380 82° East  Level Estimated
01:47PM -2.7995 -58.3372 82° East  Level Estimated
01:48PM -2.7854 -58.2365 82° East  Level Estimated
01:49PM -2.7712 -58.1358 82° East  Level Estimated
01:50PM -2.7571 -58.0351 82° East  Level Estimated
01:51PM -2.7429 -57.9344 82° East  Level Estimated
01:52PM -2.7287 -57.8337 82° East  Level Estimated
01:53PM -2.7145 -57.7330 82° East  Level Estimated
01:54PM -2.7004 -57.6323 82° East  Level Estimated
01:55PM -2.6862 -57.5316 82° East  Level Estimated
01:56PM -2.6719 -57.4309 82° East  Level Estimated
01:57PM -2.6577 -57.3302 82° East  Level Estimated
01:58PM -2.6435 -57.2296 82° East  Level Estimated
01:59PM -2.6293 -57.1289 82° East  Level Estimated
02:00PM -2.6150 -57.0282 82° East  Level Estimated
02:01PM -2.6008 -56.9275 82° East  Level Estimated
02:02PM -2.5865 -56.8268 82° East  Level Estimated
02:03PM -2.5722 -56.7262 82° East  Level Estimated
02:04PM -2.5580 -56.6255 82° East  Level Estimated
02:05PM -2.5437 -56.5248 82° East  Level Estimated
02:06PM -2.5294 -56.4241 82° East  Level Estimated
02:07PM -2.5151 -56.3235 82° East  Level Estimated
02:08PM -2.5008 -56.2228 82° East  Level Estimated
02:09PM -2.4865 -56.1222 82° East  Level Estimated
02:10PM -2.4721 -56.0215 82° East  Level Estimated
02:11PM -2.4578 -55.9208 82° East  Level Estimated
02:12PM -2.4435 -55.8202 82° East  Level Estimated
02:13PM -2.4291 -55.7195 82° East  Level Estimated
02:14PM -2.4148 -55.6189 82° East  Level Estimated
02:15PM -2.4004 -55.5182 82° East  Level Estimated
02:16PM -2.3860 -55.4176 82° East  Level Estimated
02:17PM -2.3717 -55.3169 82° East  Level Estimated
02:18PM -2.3573 -55.2163 82° East  Level Estimated
02:19PM -2.3429 -55.1156 82° East  Level Estimated
02:20PM -2.3285 -55.0150 82° East  Level Estimated
02:21PM -2.3141 -54.9144 82° East  Level Estimated
02:22PM -2.2997 -54.8137 82° East  Level Estimated
02:23PM -2.2853 -54.7131 82° East  Level Estimated
02:24PM -2.2709 -54.6125 82° East  Level Estimated
02:25PM -2.2564 -54.5118 82° East  Level Estimated
02:26PM -2.2420 -54.4112 82° East  Level Estimated
02:27PM -2.2275 -54.3106 82° East  Level Estimated
02:28PM -2.2131 -54.2099 82° East  Level Estimated
02:29PM -2.1986 -54.1093 82° East  Level Estimated
02:30PM -2.1842 -54.0087 82° East  Level Estimated
02:31PM -2.1697 -53.9081 82° East  Level Estimated
02:32PM -2.1552 -53.8075 82° East  Level Estimated
02:33PM -2.1407 -53.7069 82° East  Level Estimated
02:34PM -2.1262 -53.6063 82° East  Level Estimated
02:35PM -2.1117 -53.5056 82° East  Level Estimated
02:36PM -2.0972 -53.4050 82° East  Level Estimated
02:37PM -2.0827 -53.3044 82° East  Level Estimated
02:38PM -2.0682 -53.2038 82° East  Level Estimated
02:39PM -2.0537 -53.1032 82° East  Level Estimated
02:40PM -2.0391 -53.0026 82° East  Level Estimated
02:41PM -2.0246 -52.9020 82° East  Level Estimated
02:42PM -2.0101 -52.8014 82° East  Level Estimated
02:43PM -1.9955 -52.7008 82° East  Level Estimated
02:44PM -1.9809 -52.6002 82° East  Level Estimated
02:45PM -1.9664 -52.4996 82° East  Level Estimated
02:46PM -1.9518 -52.3991 82° East  Level Estimated
02:47PM -1.9372 -52.2985 82° East  Level Estimated
02:48PM -1.9227 -52.1979 82° East  Level Estimated
02:49PM -1.9081 -52.0973 82° East  Level Estimated
02:50PM -1.8935 -51.9967 82° East  Level Estimated
02:51PM -1.8789 -51.8961 82° East  Level Estimated
02:52PM -1.8643 -51.7956 82° East  Level Estimated
02:53PM -1.8497 -51.6950 82° East  Level Estimated
02:54PM -1.8350 -51.5944 82° East  Level Estimated
02:55PM -1.8204 -51.4938 82° East  Level Estimated
02:56PM -1.8058 -51.3933 82° East  Level Estimated
02:57PM -1.7912 -51.2927 82° East  Level Estimated
02:58PM -1.7765 -51.1921 82° East  Level Estimated
02:59PM -1.7619 -51.0915 82° East  Level Estimated
03:00PM -1.7472 -50.9910 82° East  Level Estimated
03:01PM -1.7326 -50.8904 82° East  Level Estimated
03:02PM -1.7179 -50.7899 82° East  Level Estimated
03:03PM -1.7033 -50.6893 82° East  Level Estimated
03:04PM -1.6886 -50.5887 82° East  Level Estimated
03:05PM -1.6739 -50.4882 82° East  Level Estimated
03:06PM -1.6592 -50.3876 82° East  Level Estimated
03:07PM -1.6445 -50.2871 82° East  Level Estimated
03:08PM -1.6299 -50.1865 82° East  Level Estimated
03:09PM -1.6152 -50.0860 82° East  Level Estimated
03:10PM -1.6005 -49.9854 82° East  Level Estimated
03:11PM -1.5858 -49.8849 82° East  Level Estimated
03:12PM -1.5711 -49.7843 82° East  Level Estimated
03:13PM -1.5563 -49.6838 82° East  Level Estimated
03:14PM -1.5416 -49.5832 82° East  Level Estimated
03:15PM -1.5269 -49.4827 82° East  Level Estimated
03:16PM -1.5122 -49.3821 82° East  Level Estimated
03:17PM -1.4974 -49.2816 82° East  Level Estimated
03:18PM -1.4827 -49.1810 82° East  Level Estimated
03:19PM -1.4680 -49.0805 82° East  Level Estimated
03:20PM -1.4532 -48.9800 82° East  Level Estimated
03:21PM -1.4385 -48.8794 82° East  Level Estimated
03:22PM -1.4237 -48.7789 82° East  Level Estimated
03:23PM -1.4089 -48.6784 82° East  Level Estimated
03:24PM -1.3942 -48.5778 82° East  Level Estimated
03:25PM -1.3794 -48.4773 82° East  Level Estimated
03:26PM -1.3793 -48.4763 82° East  Level Estimated
03:27PM -1.3793 -48.4763 270° West  Level Estimated
03:28PM -1.3793 -48.4763 270° West  Level Estimated
03:29PM -1.3793 -48.4763 270° West  Level Estimated
03:30PM -1.3793 -48.4763 270° West  Level Estimated
03:31PM -1.3793 -48.4763 270° West  Level Estimated
03:32PM -1.3793 -48.4763 270° West  Level Estimated
03:33PM -1.3793 -48.4763 270° West  Level Estimated
03:34PM -1.3793 -48.4763 270° West  Level Estimated
03:35PM -1.3793 -48.4763 270° West  Level Estimated
03:36PM -1.3793 -48.4763 270° West  Level Estimated
03:37PM -1.3793 -48.4763 270° West  Level Estimated
03:38PM -1.3793 -48.4763 270° West  Level Estimated
03:39PM -1.3793 -48.4763 270° West  Level Estimated
03:40PM -1.3793 -48.4763 270° West  Level Estimated
03:41PM -1.3793 -48.4763 270° West  Level Estimated